الصفحة الرئيسية
METAR-TAF:

METAR-TAF

مطار :

مطار ورززات

ورززات, المغرب

دائرة عرض: 30-56N, خط طول: 006-54W, ارتفاع: 1139 متر

مراقبة الطقس الحالي

تاريخ ووقت الإصدار 23 دقيقة قبل الساعة 12:00UTC
ريح 2 عقدةمن اتجاهات متغيرة
درجة الحرارة 18°درجة مئوية
الرطوبة 20%
ضغط 1027 hPa
الرؤية 10 كم أو أكثر
الغيوم لا تقل 1500 م ولا وجود لمزنة ركامية السحاب الأسود

METAR: GMMZ 261200Z VRB02KT CAVOK 18/M05 Q1027 NOSIG

زمن: 13:23 (12:23 UTC)

توقعات

تاريخ ووقت الإصدار 1ساعة و 23 دقيقة قبل الساعة 11:00UTC
التوقعات صالحة من26 الساعة 12 UTC إلى 27 الساعة 18 UTC
ريح 2 عقدةمن اتجاهات متغيرة
الرؤية 10 كم أو أكثر
الغيوم لا تقل 1500 م ولا وجود لمزنة ركامية السحاب الأسود
مؤقت
من 26 الساعة 13 UTC إلى 26 الساعة 18 UTC
ريح 10 عقدة من الجنوب/الجنوب الشرقي

TAF: GMMZ 261100Z 2612/2718 VRB02KT CAVOK TEMPO 2613/2618 16010KT

أرصاد الطقس والتوقعات من أكثر من 4000 مطار (تقارير الطقس للمطار METAR والتنبؤ بالطقس بالمطارTAF).

المحطات المتاحة هي النقط الصفراء والحمراء على الخريطة.

حرك المؤشر فوق النقطة لمعرفة اسم المحطة.

ثم انقر لمعرفة أرصاد وتوقعات الطقس.

لتغيير الخارطة: اضغط على الأزرار الخضراء مع رمز الصليب الأسود للتكبير. على الزر الأخضر مع شرطة للتصغير، أو على الأسهم الخضراء للخرائط المجاورة.


METAR-TAF: